Eastlake, Michigan
Current Conditions -  °F | °C
As of 7:35 AM on Friday 24 Oct 2014 (Local Time) from KLDM Reporting Station
Haze Haze  
Wind Chill: 11°   Ceiling: 900
Heat Index: 11°   Visibility: 5mi
Dew Point: 10°   Wind: 0mph
Humidity: 94%   Direction: NA
Pressure: 30.02"   Gusts: NA
Location:  44.24°N, 86.3°W
Report Text: KLDM 241135Z AUTO 00000KT 5SM BR OVC009 11/10 A3002 RMK AO2 T01100100
Loading
Personal Weather Stations






























Interactive Weather Map
Tropical Storm Tracking
New forecast layout! Learn more

10-Day Weather Forecast

Advertisements
Track Severe Weather on mobile